createdAt,value
2022-12-11T00:00:01.747Z,2.47
2022-12-11T00:02:31.676Z,2.32
2022-12-11T00:04:59.894Z,2.34
2022-12-11T00:07:27.484Z,2.15
2022-12-11T00:09:54.879Z,2.32
2022-12-11T00:12:22.569Z,2.47
2022-12-11T00:14:49.940Z,2.42
2022-12-11T00:17:17.241Z,2.01
2022-12-11T00:19:44.644Z,1.92
2022-12-11T00:22:11.911Z,2.19
2022-12-11T00:24:39.243Z,1.98
2022-12-11T00:27:06.625Z,2.16
2022-12-11T00:29:33.877Z,2.07
2022-12-11T00:32:01.775Z,2.05
2022-12-11T00:34:29.176Z,2.31
2022-12-11T00:36:56.578Z,2.32
2022-12-11T00:39:27.434Z,2.42
2022-12-11T00:41:55.891Z,2.42
2022-12-11T00:44:23.359Z,2.49
2022-12-11T00:46:50.869Z,2.32
2022-12-11T00:49:18.447Z,2.31
2022-12-11T00:51:45.800Z,2.17
2022-12-11T00:54:13.294Z,2.51
2022-12-11T00:56:41.141Z,2.68
2022-12-11T00:59:09.616Z,2.61
2022-12-11T01:01:37.476Z,2.47
2022-12-11T01:04:07.694Z,2.36
2022-12-11T01:06:34.962Z,2.00
2022-12-11T01:09:21.116Z,2.25
2022-12-11T01:11:48.475Z,2.17
2022-12-11T01:14:15.755Z,2.17
2022-12-11T01:16:43.388Z,2.08
2022-12-11T01:19:10.702Z,2.22
2022-12-11T01:21:38.126Z,2.33
2022-12-11T01:24:06.135Z,2.34
2022-12-11T01:26:33.356Z,2.09
2022-12-11T01:29:01.392Z,2.09
2022-12-11T01:31:28.667Z,2.09
2022-12-11T01:33:56.194Z,2.39
2022-12-11T01:36:24.204Z,2.27
2022-12-11T01:38:51.575Z,2.13
2022-12-11T01:41:19.002Z,2.02
2022-12-11T01:44:07.889Z,2.12
2022-12-11T01:46:36.334Z,2.13
2022-12-11T01:49:07.994Z,2.02
2022-12-11T01:51:44.119Z,2.04
2022-12-11T01:54:12.963Z,2.01
2022-12-11T01:56:42.412Z,2.01
2022-12-11T01:59:10.638Z,1.78
2022-12-11T02:01:45.730Z,1.85
2022-12-11T02:04:15.533Z,1.72
2022-12-11T02:06:45.106Z,1.43
2022-12-11T02:09:19.213Z,1.79
2022-12-11T02:12:04.785Z,1.62
2022-12-11T02:14:53.799Z,1.31
2022-12-11T02:17:42.333Z,1.46
2022-12-11T02:20:22.530Z,1.53
2022-12-11T02:22:55.757Z,1.68
2022-12-11T02:25:32.247Z,1.82
2022-12-11T02:28:17.834Z,1.88
2022-12-11T02:30:50.809Z,1.88
2022-12-11T02:33:26.824Z,1.82
2022-12-11T02:35:54.707Z,2.15
2022-12-11T02:38:30.023Z,2.05
2022-12-11T02:40:58.490Z,1.90
2022-12-11T02:43:25.969Z,1.96
2022-12-11T02:45:53.886Z,1.95
2022-12-11T02:48:22.699Z,1.80
2022-12-11T02:50:55.701Z,1.49
2022-12-11T02:53:26.835Z,1.70
2022-12-11T02:56:00.746Z,1.70
2022-12-11T02:58:31.619Z,1.90
2022-12-11T03:00:58.983Z,1.89
2022-12-11T03:03:28.739Z,2.06
2022-12-11T03:05:56.244Z,2.08
2022-12-11T03:08:23.570Z,1.96
2022-12-11T03:10:50.908Z,1.69
2022-12-11T03:13:20.508Z,1.72
2022-12-11T03:16:05.495Z,1.70
2022-12-11T03:18:49.103Z,1.39
2022-12-11T03:21:27.948Z,1.36
2022-12-11T03:23:55.196Z,1.46
2022-12-11T03:26:23.174Z,1.54
2022-12-11T03:29:00.288Z,1.43
2022-12-11T03:31:43.971Z,1.08
2022-12-11T03:34:19.744Z,1.09
2022-12-11T03:36:47.693Z,0.90
2022-12-11T03:39:33.949Z,1.13
2022-12-11T03:42:03.855Z,1.02
2022-12-11T03:44:32.596Z,1.11
2022-12-11T03:47:02.091Z,1.19
2022-12-11T03:49:32.506Z,1.09
2022-12-11T03:52:00.377Z,1.06
2022-12-11T03:54:28.095Z,1.00
2022-12-11T03:56:57.652Z,0.66
2022-12-11T03:59:25.083Z,0.70
2022-12-11T04:01:52.512Z,0.69
2022-12-11T04:04:20.531Z,0.78
2022-12-11T04:06:47.880Z,0.71
2022-12-11T04:09:15.436Z,1.02
2022-12-11T04:11:43.073Z,0.94
2022-12-11T04:14:33.021Z,0.79
2022-12-11T04:17:01.532Z,0.88
2022-12-11T04:19:47.683Z,0.94
2022-12-11T04:22:35.044Z,0.99
2022-12-11T04:25:04.911Z,0.88
2022-12-11T04:27:50.409Z,0.90
2022-12-11T04:30:21.546Z,0.98
2022-12-11T04:32:49.474Z,1.04
2022-12-11T04:35:17.117Z,1.19
2022-12-11T04:37:44.629Z,1.29
2022-12-11T04:40:14.985Z,1.32
2022-12-11T04:42:42.407Z,1.38
2022-12-11T04:45:10.982Z,1.06
2022-12-11T04:47:39.767Z,1.03
2022-12-11T04:50:09.313Z,0.85
2022-12-11T04:52:36.762Z,0.82
2022-12-11T04:55:05.979Z,0.96
2022-12-11T04:57:33.864Z,1.06
2022-12-11T05:00:02.013Z,0.86
2022-12-11T05:02:29.352Z,0.77
2022-12-11T05:04:56.685Z,0.90
2022-12-11T05:07:24.514Z,0.81
2022-12-11T05:09:51.736Z,1.01
2022-12-11T05:12:19.091Z,1.03
2022-12-11T05:14:46.431Z,0.85
2022-12-11T05:17:13.910Z,0.72
2022-12-11T05:19:41.287Z,0.66
2022-12-11T05:22:08.579Z,0.47
2022-12-11T05:24:35.896Z,0.64
2022-12-11T05:27:03.218Z,0.81
2022-12-11T05:29:30.414Z,0.66
2022-12-11T05:31:57.666Z,0.91
2022-12-11T05:34:25.001Z,0.99
2022-12-11T05:36:52.491Z,1.13
2022-12-11T05:39:19.936Z,0.98
2022-12-11T05:41:47.226Z,0.97
2022-12-11T05:44:14.524Z,1.02
2022-12-11T05:46:41.856Z,0.82
2022-12-11T05:49:10.663Z,1.12
2022-12-11T05:51:39.768Z,1.13
2022-12-11T05:54:07.338Z,1.35
2022-12-11T05:56:34.994Z,1.35
2022-12-11T05:59:03.570Z,1.04
2022-12-11T06:01:41.616Z,0.87
2022-12-11T06:04:10.946Z,1.07
2022-12-11T06:06:40.689Z,1.03
2022-12-11T06:09:08.146Z,0.88
2022-12-11T06:11:35.908Z,0.98
2022-12-11T06:14:03.854Z,0.97
2022-12-11T06:16:32.188Z,1.04
2022-12-11T06:19:03.020Z,0.93
2022-12-11T06:21:33.756Z,1.10
2022-12-11T06:24:03.648Z,0.78
2022-12-11T06:26:32.003Z,0.97
2022-12-11T06:28:59.556Z,0.95
2022-12-11T06:31:27.622Z,0.91
2022-12-11T06:33:55.137Z,0.85
2022-12-11T06:36:24.265Z,0.89
2022-12-11T06:38:52.459Z,0.90
2022-12-11T06:41:19.727Z,1.16
2022-12-11T06:43:47.349Z,0.82
2022-12-11T06:46:19.188Z,0.74
2022-12-11T06:48:46.914Z,0.90
2022-12-11T06:51:16.803Z,0.92
2022-12-11T06:53:44.799Z,1.11
2022-12-11T06:56:15.287Z,0.94
2022-12-11T06:58:43.921Z,0.61
2022-12-11T07:01:19.463Z,0.71
2022-12-11T07:03:47.298Z,0.60
2022-12-11T07:06:16.100Z,0.72
2022-12-11T07:08:43.634Z,0.73
2022-12-11T07:11:12.966Z,0.61
2022-12-11T07:13:42.039Z,0.92
2022-12-11T07:16:11.604Z,1.00
2022-12-11T07:18:43.693Z,1.03
2022-12-11T07:21:13.071Z,1.03
2022-12-11T07:23:41.328Z,1.32
2022-12-11T07:26:12.018Z,1.11
2022-12-11T07:28:40.045Z,1.18
2022-12-11T07:31:09.266Z,0.87
2022-12-11T07:33:36.705Z,1.05
2022-12-11T07:36:08.367Z,1.23
2022-12-11T07:38:36.114Z,1.29
2022-12-11T07:41:05.459Z,1.15
2022-12-11T07:43:36.180Z,1.00
2022-12-11T07:46:12.873Z,1.36
2022-12-11T07:48:41.889Z,1.59
2022-12-11T07:51:12.692Z,1.41
2022-12-11T07:53:39.963Z,1.41
2022-12-11T07:56:07.863Z,1.45
2022-12-11T07:58:36.100Z,1.49
2022-12-11T08:01:03.428Z,1.11
2022-12-11T08:03:30.967Z,1.20
2022-12-11T08:05:58.175Z,1.19
2022-12-11T08:08:25.684Z,1.02
2022-12-11T08:10:53.439Z,1.25
2022-12-11T08:13:20.671Z,0.94
2022-12-11T08:15:48.954Z,0.88
2022-12-11T08:18:16.359Z,1.27
2022-12-11T08:20:43.608Z,1.02
2022-12-11T08:23:11.902Z,1.25
2022-12-11T08:25:39.320Z,0.94
2022-12-11T08:28:06.954Z,0.73
2022-12-11T08:30:34.257Z,0.98
2022-12-11T08:33:01.693Z,1.15
2022-12-11T08:35:29.000Z,1.19
2022-12-11T08:37:56.247Z,0.96
2022-12-11T08:40:23.772Z,1.13
2022-12-11T08:42:52.285Z,1.12
2022-12-11T08:45:19.675Z,1.13
2022-12-11T08:47:46.926Z,1.22
2022-12-11T08:50:14.312Z,1.11
2022-12-11T08:52:44.262Z,1.21
2022-12-11T08:55:11.878Z,1.14
2022-12-11T08:57:39.902Z,1.02
2022-12-11T09:00:09.336Z,1.11
2022-12-11T09:02:36.650Z,1.15
2022-12-11T09:05:09.095Z,1.34
2022-12-11T09:07:37.598Z,1.61
2022-12-11T09:10:06.207Z,1.79
2022-12-11T09:12:37.130Z,2.83
2022-12-11T09:15:05.125Z,3.36
2022-12-11T09:17:35.325Z,2.29
2022-12-11T09:20:05.324Z,2.02
2022-12-11T09:22:33.732Z,1.74
2022-12-11T09:25:03.149Z,1.45
2022-12-11T09:27:30.422Z,1.71
2022-12-11T09:29:57.882Z,1.67
2022-12-11T09:32:25.112Z,1.57
2022-12-11T09:34:52.400Z,1.22
2022-12-11T09:37:19.640Z,1.42
2022-12-11T09:39:47.013Z,1.58
2022-12-11T09:42:35.833Z,1.68
2022-12-11T09:45:05.050Z,1.41
2022-12-11T09:47:43.337Z,1.35
2022-12-11T09:50:10.529Z,0.86
2022-12-11T09:52:39.121Z,0.99
2022-12-11T09:55:24.282Z,1.02
2022-12-11T09:58:16.977Z,1.00
2022-12-11T10:00:51.207Z,0.96
2022-12-11T10:03:24.626Z,0.91
2022-12-11T10:06:29.742Z,0.88
2022-12-11T10:09:18.573Z,1.13
2022-12-11T10:12:15.914Z,1.29
2022-12-11T10:15:24.540Z,1.43
2022-12-11T10:17:54.963Z,1.68
2022-12-11T10:20:29.243Z,1.73
2022-12-11T10:22:57.398Z,1.71
2022-12-11T10:25:30.182Z,1.62
2022-12-11T10:27:57.947Z,1.33
2022-12-11T10:30:30.459Z,1.44
2022-12-11T10:33:24.913Z,1.24
2022-12-11T10:35:55.170Z,1.48
2022-12-11T10:38:31.095Z,1.38
2022-12-11T10:41:01.908Z,1.17
2022-12-11T10:43:37.182Z,1.14
2022-12-11T10:46:05.564Z,1.24
2022-12-11T10:48:33.332Z,1.45
2022-12-11T10:51:07.057Z,1.42
2022-12-11T10:53:35.000Z,1.34
2022-12-11T10:56:02.452Z,1.47
2022-12-11T10:58:34.677Z,1.43
2022-12-11T11:01:18.516Z,1.31
2022-12-11T11:04:03.532Z,1.77
2022-12-11T11:06:30.930Z,1.59
2022-12-11T11:09:00.381Z,1.90
2022-12-11T11:11:36.921Z,1.59
2022-12-11T11:14:25.729Z,1.78
2022-12-11T11:16:56.496Z,1.87
2022-12-11T11:19:28.885Z,2.06
2022-12-11T11:21:58.664Z,2.11
2022-12-11T11:24:49.190Z,2.02
2022-12-11T11:27:37.144Z,2.22
2022-12-11T11:30:08.458Z,2.27
2022-12-11T11:32:40.201Z,2.34
2022-12-11T11:35:11.620Z,2.01
2022-12-11T11:37:49.075Z,2.16
2022-12-11T11:40:19.655Z,1.97
2022-12-11T11:43:11.270Z,2.30
2022-12-11T11:45:44.753Z,2.37
2022-12-11T11:48:40.001Z,2.62
2022-12-11T11:51:15.906Z,2.17
2022-12-11T11:53:48.449Z,2.30
2022-12-11T11:56:23.515Z,2.54
2022-12-11T11:59:23.631Z,2.53
2022-12-11T12:01:54.598Z,2.65
2022-12-11T12:04:22.231Z,12.54
2022-12-11T12:07:01.577Z,9.07
2022-12-11T12:09:44.160Z,5.91
2022-12-11T12:12:19.406Z,4.53
2022-12-11T12:15:28.745Z,3.71
2022-12-11T12:17:58.845Z,3.22
2022-12-11T12:20:50.956Z,3.69
2022-12-11T12:23:37.306Z,3.42
2022-12-11T12:26:27.274Z,3.02
2022-12-11T12:29:21.547Z,3.10
2022-12-11T12:32:26.404Z,2.85
2022-12-11T12:35:21.801Z,2.86
2022-12-11T12:38:00.087Z,3.03
2022-12-11T12:40:32.975Z,2.99
2022-12-11T12:43:19.551Z,2.90
2022-12-11T12:46:13.118Z,2.68
2022-12-11T12:48:40.474Z,2.78
2022-12-11T12:51:07.960Z,3.10
2022-12-11T12:53:36.948Z,2.68
2022-12-11T12:56:06.083Z,2.72
2022-12-11T12:58:41.461Z,2.81
2022-12-11T13:01:10.769Z,2.62
2022-12-11T13:03:51.111Z,2.68
2022-12-11T13:06:29.601Z,2.65
2022-12-11T13:08:57.241Z,2.46
2022-12-11T13:11:33.196Z,2.85
2022-12-11T13:14:05.351Z,2.79
2022-12-11T13:16:38.986Z,2.64
2022-12-11T13:19:27.914Z,3.05
2022-12-11T13:21:56.404Z,2.99
2022-12-11T13:24:23.712Z,2.91
2022-12-11T13:26:51.786Z,2.84
2022-12-11T13:29:48.514Z,2.92
2022-12-11T13:32:18.833Z,2.92
2022-12-11T13:34:54.132Z,3.06
2022-12-11T13:37:26.197Z,3.13
2022-12-11T13:39:53.651Z,3.33
2022-12-11T13:42:29.629Z,3.27
2022-12-11T13:44:57.590Z,3.06
2022-12-11T13:47:25.321Z,3.06
2022-12-11T13:50:02.818Z,2.98
2022-12-11T13:52:31.121Z,2.90
2022-12-11T13:54:59.348Z,2.98
2022-12-11T13:57:28.620Z,3.02
2022-12-11T13:59:57.753Z,3.01
2022-12-11T14:02:38.747Z,2.94
2022-12-11T14:05:09.227Z,3.14
2022-12-11T14:07:50.230Z,3.35
2022-12-11T14:10:23.250Z,3.22
2022-12-11T14:12:58.694Z,3.25
2022-12-11T14:15:27.363Z,3.50
2022-12-11T14:17:55.103Z,3.54
2022-12-11T14:20:27.890Z,3.23
2022-12-11T14:23:06.631Z,3.16
2022-12-11T14:25:34.012Z,2.92
2022-12-11T14:28:01.741Z,3.11
2022-12-11T14:30:32.554Z,3.14
2022-12-11T14:33:04.502Z,3.27
2022-12-11T14:35:39.404Z,3.19
2022-12-11T14:38:24.277Z,3.28
2022-12-11T14:40:59.879Z,3.54
2022-12-11T14:43:38.091Z,3.26
2022-12-11T14:46:09.493Z,3.30
2022-12-11T14:48:44.957Z,3.26
2022-12-11T14:51:20.495Z,3.17
2022-12-11T14:53:49.309Z,3.25
2022-12-11T14:56:21.951Z,3.22
2022-12-11T14:58:58.739Z,2.95
2022-12-11T15:01:30.204Z,3.20
2022-12-11T15:04:15.927Z,2.91
2022-12-11T15:06:45.130Z,3.01
2022-12-11T15:09:27.839Z,2.80
2022-12-11T15:12:07.750Z,2.62
2022-12-11T15:14:35.071Z,2.78
2022-12-11T15:17:02.526Z,2.71
2022-12-11T15:19:32.223Z,2.60
2022-12-11T15:22:07.806Z,2.43
2022-12-11T15:24:37.522Z,2.46
2022-12-11T15:27:06.108Z,2.57
2022-12-11T15:29:39.609Z,2.57
2022-12-11T15:32:09.836Z,2.48
2022-12-11T15:34:52.583Z,2.36
2022-12-11T15:37:27.396Z,2.14
2022-12-11T15:39:56.327Z,1.97
2022-12-11T15:42:32.997Z,2.10
2022-12-11T15:45:00.730Z,2.33
2022-12-11T15:47:31.123Z,2.12
2022-12-11T15:50:00.633Z,2.03
2022-12-11T15:52:28.282Z,1.95
2022-12-11T15:54:55.674Z,2.06
2022-12-11T15:57:24.265Z,1.72
2022-12-11T15:59:54.939Z,1.68
2022-12-11T16:02:24.374Z,1.74
2022-12-11T16:04:51.900Z,1.87
2022-12-11T16:07:21.525Z,2.00
2022-12-11T16:09:49.217Z,2.12
2022-12-11T16:12:16.573Z,1.94
2022-12-11T16:14:47.087Z,2.39
2022-12-11T16:17:15.700Z,2.84
2022-12-11T16:19:44.009Z,2.82
2022-12-11T16:22:12.722Z,2.63
2022-12-11T16:24:40.250Z,2.62
2022-12-11T16:27:09.572Z,2.50
2022-12-11T16:29:37.757Z,2.30
2022-12-11T16:32:07.085Z,2.05
2022-12-11T16:34:36.174Z,1.90
2022-12-11T16:37:04.796Z,1.88
2022-12-11T16:39:32.318Z,1.90
2022-12-11T16:41:59.613Z,1.83
2022-12-11T16:44:27.438Z,1.57
2022-12-11T16:46:55.279Z,1.40
2022-12-11T16:49:22.600Z,0.97
2022-12-11T16:51:49.990Z,1.05
2022-12-11T16:54:17.962Z,1.02
2022-12-11T16:56:45.729Z,0.74
2022-12-11T16:59:13.110Z,0.76
2022-12-11T17:01:41.095Z,0.93
2022-12-11T17:04:08.897Z,0.84
2022-12-11T17:06:36.537Z,1.29
2022-12-11T17:09:03.871Z,0.98
2022-12-11T17:11:31.154Z,0.94
2022-12-11T17:13:59.819Z,0.94
2022-12-11T17:16:30.342Z,0.88
2022-12-11T17:18:59.005Z,0.81
2022-12-11T17:21:26.323Z,0.78
2022-12-11T17:23:53.695Z,0.51
2022-12-11T17:26:21.455Z,0.63
2022-12-11T17:28:48.738Z,0.60
2022-12-11T17:31:17.808Z,0.47
2022-12-11T17:33:46.315Z,0.68
2022-12-11T17:36:19.017Z,0.78
2022-12-11T17:38:46.842Z,0.64
2022-12-11T17:41:20.415Z,0.67
2022-12-11T17:43:50.346Z,0.84
2022-12-11T17:46:21.124Z,0.75
2022-12-11T17:48:51.383Z,0.83
2022-12-11T17:51:23.980Z,0.86
2022-12-11T17:53:53.239Z,0.66
2022-12-11T17:56:20.759Z,0.94
2022-12-11T17:58:48.726Z,0.67
2022-12-11T18:01:16.329Z,0.70
2022-12-11T18:03:43.629Z,0.77
2022-12-11T18:06:14.647Z,0.61
2022-12-11T18:08:44.545Z,0.76
2022-12-11T18:11:13.830Z,0.53
2022-12-11T18:13:41.962Z,0.48
2022-12-11T18:16:13.526Z,0.40
2022-12-11T18:18:40.832Z,0.94
2022-12-11T18:21:13.085Z,0.96
2022-12-11T18:23:40.496Z,0.78
2022-12-11T18:26:08.240Z,0.69
2022-12-11T18:28:35.541Z,0.50
2022-12-11T18:31:03.999Z,0.62
2022-12-11T18:33:32.173Z,0.78
2022-12-11T18:35:59.633Z,0.88
2022-12-11T18:38:26.904Z,0.97
2022-12-11T18:40:54.353Z,0.96
2022-12-11T18:43:21.644Z,1.10
2022-12-11T18:45:49.035Z,1.21
2022-12-11T18:48:16.574Z,1.13
2022-12-11T18:50:48.713Z,1.19
2022-12-11T18:53:17.226Z,1.29
2022-12-11T18:55:47.475Z,1.35
2022-12-11T18:58:17.674Z,1.33
2022-12-11T19:00:46.358Z,1.15
2022-12-11T19:03:14.217Z,1.30
2022-12-11T19:05:43.680Z,1.24
2022-12-11T19:08:12.656Z,1.37
2022-12-11T19:10:44.887Z,1.37
2022-12-11T19:13:13.098Z,1.32
2022-12-11T19:15:47.354Z,1.06
2022-12-11T19:18:14.881Z,1.05
2022-12-11T19:20:49.446Z,1.04
2022-12-11T19:23:17.322Z,0.92
2022-12-11T19:25:46.895Z,1.09
2022-12-11T19:28:15.536Z,0.77
2022-12-11T19:30:48.887Z,0.78
2022-12-11T19:33:16.892Z,1.17
2022-12-11T19:35:44.720Z,1.20
2022-12-11T19:38:18.443Z,0.94
2022-12-11T19:40:46.087Z,1.02
2022-12-11T19:43:13.412Z,0.90
2022-12-11T19:45:41.448Z,1.10
2022-12-11T19:48:08.761Z,1.10
2022-12-11T19:50:36.482Z,0.91
2022-12-11T19:53:04.229Z,1.10
2022-12-11T19:55:31.799Z,1.30
2022-12-11T19:57:59.926Z,0.99
2022-12-11T20:00:27.230Z,1.21
2022-12-11T20:02:55.171Z,1.31
2022-12-11T20:05:22.608Z,1.11
2022-12-11T20:07:49.935Z,1.38
2022-12-11T20:10:17.226Z,1.14
2022-12-11T20:12:44.523Z,1.28
2022-12-11T20:15:12.265Z,1.49
2022-12-11T20:17:44.590Z,1.37
2022-12-11T20:20:11.999Z,1.33
2022-12-11T20:22:39.316Z,1.40
2022-12-11T20:25:07.403Z,1.15
2022-12-11T20:27:34.853Z,1.02
2022-12-11T20:30:03.564Z,1.09
2022-12-11T20:32:30.936Z,1.29
2022-12-11T20:34:58.319Z,1.58
2022-12-11T20:37:26.820Z,1.33
2022-12-11T20:39:54.234Z,1.12
2022-12-11T20:42:21.937Z,0.82
2022-12-11T20:44:50.619Z,1.09
2022-12-11T20:47:19.823Z,0.75
2022-12-11T20:49:48.300Z,0.82
2022-12-11T20:52:17.066Z,1.02
2022-12-11T20:54:44.565Z,1.37
2022-12-11T20:57:13.836Z,1.31
2022-12-11T20:59:41.229Z,0.89
2022-12-11T21:02:09.306Z,0.90
2022-12-11T21:04:41.609Z,0.94
2022-12-11T21:07:09.990Z,0.93
2022-12-11T21:09:38.236Z,1.04
2022-12-11T21:12:06.419Z,0.80
2022-12-11T21:14:33.910Z,0.75
2022-12-11T21:17:01.286Z,0.34
2022-12-11T21:19:28.660Z,0.50
2022-12-11T21:21:56.870Z,0.67
2022-12-11T21:24:26.665Z,0.86
2022-12-11T21:26:55.926Z,0.77
2022-12-11T21:29:24.663Z,0.78
2022-12-11T21:31:53.059Z,0.93
2022-12-11T21:34:25.367Z,1.06
2022-12-11T21:36:56.752Z,0.99
2022-12-11T21:39:25.287Z,1.08
2022-12-11T21:41:53.222Z,1.09
2022-12-11T21:47:09.212Z,0.57
2022-12-11T21:49:37.289Z,0.86
2022-12-11T21:52:05.197Z,0.88
2022-12-11T21:54:32.405Z,0.76
2022-12-11T21:56:59.715Z,0.87
2022-12-11T21:59:28.556Z,1.02
2022-12-11T22:01:55.935Z,1.17
2022-12-11T22:04:23.368Z,1.26
2022-12-11T22:06:50.801Z,1.11
2022-12-11T22:09:18.449Z,1.19
2022-12-11T22:11:46.152Z,0.97
2022-12-11T22:14:14.703Z,0.68
2022-12-11T22:16:42.653Z,0.37
2022-12-11T22:19:10.407Z,0.32
2022-12-11T22:21:38.097Z,0.64
2022-12-11T22:24:05.537Z,0.82
2022-12-11T22:26:32.805Z,0.79
2022-12-11T22:29:00.252Z,0.93
2022-12-11T22:31:27.652Z,0.70
2022-12-11T22:33:55.427Z,0.61
2022-12-11T22:36:25.231Z,0.59
2022-12-11T22:38:52.631Z,0.82
2022-12-11T22:41:27.719Z,0.86
2022-12-11T22:43:56.178Z,0.81
2022-12-11T22:46:25.768Z,1.03
2022-12-11T22:48:53.643Z,0.87
2022-12-11T22:51:21.636Z,0.92
2022-12-11T22:53:49.197Z,1.12
2022-12-11T22:56:16.718Z,1.14
2022-12-11T22:58:44.038Z,1.06
2022-12-11T23:01:15.718Z,1.33
2022-12-11T23:03:43.368Z,1.19
2022-12-11T23:06:13.161Z,1.30
2022-12-11T23:08:41.339Z,1.38
2022-12-11T23:11:24.419Z,1.21
2022-12-11T23:13:52.433Z,1.20
2022-12-11T23:16:21.658Z,1.07
2022-12-11T23:18:48.976Z,0.98
2022-12-11T23:21:16.416Z,1.02
2022-12-11T23:23:43.883Z,1.22
2022-12-11T23:26:12.518Z,1.08
2022-12-11T23:28:40.293Z,1.00
2022-12-11T23:31:08.299Z,0.80
2022-12-11T23:33:36.318Z,0.73
2022-12-11T23:36:04.459Z,0.99
2022-12-11T23:38:32.543Z,0.85
2022-12-11T23:41:01.560Z,0.79
2022-12-11T23:43:29.013Z,0.64
2022-12-11T23:45:57.679Z,0.39
2022-12-11T23:48:25.030Z,0.44
2022-12-11T23:50:52.387Z,0.24
2022-12-11T23:53:19.624Z,0.25
2022-12-11T23:55:47.447Z,0.49
2022-12-11T23:58:15.285Z,0.50
